Fort Yukon, Alaska
Current Conditions -  °F | °C
As of 7:56 AM on Friday 24 Oct 2014 (Local Time) from PFYU Reporting Station
Clear Clear  
Wind Chill: 12°   Ceiling: Unl
Heat Index: 12°   Visibility: 8mi
Dew Point:   Wind: 0mph
Humidity: 85%   Direction: NA
Pressure: 29.83"   Gusts: NA
Location:  66.57°N, 145.27°W
Report Text: PFYU 241556Z 00000KT 8SM CLR M11/M13 A2983 RMK AO1 WX; -SN
Loading
Personal Weather Stations






























Interactive Weather Map
Tropical Storm Tracking
New forecast layout! Learn more

10-Day Weather Forecast

Advertisements
Track Severe Weather on mobile